sensor_id;sensor_type;location;lat;lon;timestamp;pressure;altitude;pressure_sealevel;temperature;humidity
41688;BME280;27371;42.686;23.362;2023-03-04T00:00:53;163560.97;;;5.23;91.05
41688;BME280;27371;42.686;23.362;2023-03-04T00:03:18;163584.97;;;5.32;91.14
41688;BME280;27371;42.686;23.362;2023-03-04T00:05:44;163599.63;;;5.38;91.39
41688;BME280;27371;42.686;23.362;2023-03-04T00:08:11;163626.22;;;5.48;91.32
41688;BME280;27371;42.686;23.362;2023-03-04T00:10:37;163639.56;;;5.53;91.17
41688;BME280;27371;42.686;23.362;2023-03-04T00:13:02;163662.19;;;5.62;91.35
41688;BME280;27371;42.686;23.362;2023-03-04T00:15:28;163676.84;;;5.68;90.52
41688;BME280;27371;42.686;23.362;2023-03-04T00:17:53;163675.53;;;5.67;90.16
41688;BME280;27371;42.686;23.362;2023-03-04T00:20:19;163691.50;;;5.73;90.20
41688;BME280;27371;42.686;23.362;2023-03-04T00:22:44;163710.16;;;5.80;90.19
41688;BME280;27371;42.686;23.362;2023-03-04T00:25:10;163708.84;;;5.80;89.64
41688;BME280;27371;42.686;23.362;2023-03-04T00:27:35;163899.44;;;6.53;94.53
41688;BME280;27371;42.686;23.362;2023-03-04T00:30:01;163990.13;;;6.88;91.65
41688;BME280;27371;42.686;23.362;2023-03-04T00:32:26;164148.81;;;7.49;91.39
41688;BME280;27371;42.686;23.362;2023-03-04T00:34:52;164288.91;;;8.02;88.10
41688;BME280;27371;42.686;23.362;2023-03-04T00:37:18;164538.47;;;8.98;84.21
41688;BME280;27371;42.686;23.362;2023-03-04T00:39:43;164758.84;;;9.82;76.80
41688;BME280;27371;42.686;23.362;2023-03-04T00:42:09;164836.34;;;10.12;73.61
41688;BME280;27371;42.686;23.362;2023-03-04T00:44:34;164847.00;;;10.16;72.47
41688;BME280;27371;42.686;23.362;2023-03-04T00:46:59;164726.75;;;9.70;70.68
41688;BME280;27371;42.686;23.362;2023-03-04T00:49:25;164513.16;;;8.88;71.58
41688;BME280;27371;42.686;23.362;2023-03-04T00:51:51;164330.22;;;8.18;73.71
41688;BME280;27371;42.686;23.362;2023-03-04T00:54:16;164211.50;;;7.73;76.15
41688;BME280;27371;42.686;23.362;2023-03-04T00:56:41;164111.47;;;7.34;78.06
41688;BME280;27371;42.686;23.362;2023-03-04T00:59:07;164092.78;;;7.27;79.41
41688;BME280;27371;42.686;23.362;2023-03-04T01:04:29;164008.81;;;6.95;80.20
41688;BME280;27371;42.686;23.362;2023-03-04T01:06:55;163971.44;;;6.81;80.60
41688;BME280;27371;42.686;23.362;2023-03-04T01:09:20;163936.81;;;6.67;81.32
41688;BME280;27371;42.686;23.362;2023-03-04T01:11:46;163911.47;;;6.58;81.99
41688;BME280;27371;42.686;23.362;2023-03-04T01:14:11;163906.09;;;6.56;82.13
41688;BME280;27371;42.686;23.362;2023-03-04T01:16:36;163896.78;;;6.52;82.47
41688;BME280;27371;42.686;23.362;2023-03-04T01:19:02;163883.47;;;6.47;82.64
41688;BME280;27371;42.686;23.362;2023-03-04T01:21:28;163859.47;;;6.38;83.04
41688;BME280;27371;42.686;23.362;2023-03-04T01:23:53;163830.16;;;6.27;83.38
41688;BME280;27371;42.686;23.362;2023-03-04T01:26:18;163807.53;;;6.18;83.62
41688;BME280;27371;42.686;23.362;2023-03-04T01:28:44;163798.16;;;6.14;83.72
41688;BME280;27371;42.686;23.362;2023-03-04T01:31:09;163744.88;;;5.94;82.73
41688;BME280;27371;42.686;23.362;2023-03-04T01:33:35;163684.88;;;5.71;82.54
41688;BME280;27371;42.686;23.362;2023-03-04T01:36:00;163647.53;;;5.56;83.80
41688;BME280;27371;42.686;23.362;2023-03-04T01:38:26;163643.56;;;5.55;85.16
41688;BME280;27371;42.686;23.362;2023-03-04T01:40:52;163652.88;;;5.58;85.88
41688;BME280;27371;42.686;23.362;2023-03-04T01:43:21;163636.91;;;5.52;86.42
41688;BME280;27371;42.686;23.362;2023-03-04T01:45:49;163635.59;;;5.52;86.93
41688;BME280;27371;42.686;23.362;2023-03-04T01:48:17;163596.94;;;5.37;87.32
41688;BME280;27371;42.686;23.362;2023-03-04T01:50:44;163619.56;;;5.46;87.69
41688;BME280;27371;42.686;23.362;2023-03-04T01:53:18;163610.25;;;5.42;87.71
41688;BME280;27371;42.686;23.362;2023-03-04T01:55:45;163623.59;;;5.47;87.89
41688;BME280;27371;42.686;23.362;2023-03-04T01:58:11;163616.91;;;5.45;87.82
41688;BME280;27371;42.686;23.362;2023-03-04T02:00:37;163619.56;;;5.46;88.03
41688;BME280;27371;42.686;23.362;2023-03-04T02:03:08;163615.59;;;5.44;88.04
41688;BME280;27371;42.686;23.362;2023-03-04T02:05:38;163616.91;;;5.45;88.12
41688;BME280;27371;42.686;23.362;2023-03-04T02:08:06;163623.59;;;5.47;88.17
41688;BME280;27371;42.686;23.362;2023-03-04T02:10:32;163646.22;;;5.56;88.07
41688;BME280;27371;42.686;23.362;2023-03-04T02:12:59;163642.25;;;5.54;88.00
41688;BME280;27371;42.686;23.362;2023-03-04T02:15:24;163627.59;;;5.49;88.03
41688;BME280;27371;42.686;23.362;2023-03-04T02:17:50;163639.56;;;5.53;87.92
41688;BME280;27371;42.686;23.362;2023-03-04T02:23:03;163628.94;;;5.49;87.56
41688;BME280;27371;42.686;23.362;2023-03-04T02:25:36;163568.97;;;5.26;85.55
41688;BME280;27371;42.686;23.362;2023-03-04T02:28:03;163494.41;;;4.98;85.58
41688;BME280;27371;42.686;23.362;2023-03-04T02:30:29;163473.09;;;4.89;86.47
41688;BME280;27371;42.686;23.362;2023-03-04T02:32:55;163483.78;;;4.94;88.15
41688;BME280;27371;42.686;23.362;2023-03-04T02:35:21;163502.38;;;5.01;88.84
41688;BME280;27371;42.686;23.362;2023-03-04T02:37:46;163511.69;;;5.04;89.56
41688;BME280;27371;42.686;23.362;2023-03-04T02:40:22;163521.03;;;5.08;89.26
41688;BME280;27371;42.686;23.362;2023-03-04T02:42:48;163510.38;;;5.04;89.31
41688;BME280;27371;42.686;23.362;2023-03-04T02:45:36;163517.03;;;5.06;90.02
41688;BME280;27371;42.686;23.362;2023-03-04T02:48:02;163511.69;;;5.04;89.79
41688;BME280;27371;42.686;23.362;2023-03-04T02:50:32;163525.00;;;5.09;89.89
41688;BME280;27371;42.686;23.362;2023-03-04T02:52:58;163519.72;;;5.07;89.88
41688;BME280;27371;42.686;23.362;2023-03-04T02:55:24;163530.34;;;5.11;89.77
41688;BME280;27371;42.686;23.362;2023-03-04T02:57:49;163537.00;;;5.14;89.54
41688;BME280;27371;42.686;23.362;2023-03-04T03:00:15;163543.69;;;5.17;89.41
41688;BME280;27371;42.686;23.362;2023-03-04T03:02:40;163533.00;;;5.12;89.32
41688;BME280;27371;42.686;23.362;2023-03-04T03:05:06;163542.34;;;5.16;89.04
41688;BME280;27371;42.686;23.362;2023-03-04T03:07:32;163530.34;;;5.11;88.88
41688;BME280;27371;42.686;23.362;2023-03-04T03:09:59;163527.72;;;5.10;88.77
41688;BME280;27371;42.686;23.362;2023-03-04T03:12:25;163522.38;;;5.08;88.77
41688;BME280;27371;42.686;23.362;2023-03-04T03:14:51;163533.00;;;5.12;88.96
41688;BME280;27371;42.686;23.362;2023-03-04T03:17:16;163495.72;;;4.98;87.42
41688;BME280;27371;42.686;23.362;2023-03-04T03:19:42;163455.81;;;4.83;87.90
41688;BME280;27371;42.686;23.362;2023-03-04T03:22:08;163429.16;;;4.73;87.81
41688;BME280;27371;42.686;23.362;2023-03-04T03:24:33;163411.88;;;4.66;88.58
41688;BME280;27371;42.686;23.362;2023-03-04T03:26:59;163395.84;;;4.60;89.22
41688;BME280;27371;42.686;23.362;2023-03-04T03:29:24;163395.84;;;4.60;89.90
41688;BME280;27371;42.686;23.362;2023-03-04T03:31:50;163389.19;;;4.57;90.17
41688;BME280;27371;42.686;23.362;2023-03-04T03:34:15;163377.25;;;4.53;90.23
41688;BME280;27371;42.686;23.362;2023-03-04T03:36:41;163365.25;;;4.48;91.00
41688;BME280;27371;42.686;23.362;2023-03-04T03:39:06;163371.91;;;4.51;91.51
41688;BME280;27371;42.686;23.362;2023-03-04T03:41:31;163387.88;;;4.57;91.66
41688;BME280;27371;42.686;23.362;2023-03-04T03:43:57;163395.84;;;4.60;91.60
41688;BME280;27371;42.686;23.362;2023-03-04T03:46:22;163407.84;;;4.64;91.27
41688;BME280;27371;42.686;23.362;2023-03-04T03:48:48;163402.53;;;4.62;91.12
41688;BME280;27371;42.686;23.362;2023-03-04T03:51:13;163414.50;;;4.67;91.27
41688;BME280;27371;42.686;23.362;2023-03-04T03:53:39;163414.50;;;4.67;91.07
41688;BME280;27371;42.686;23.362;2023-03-04T03:56:05;163415.84;;;4.67;90.70
41688;BME280;27371;42.686;23.362;2023-03-04T03:58:30;163422.50;;;4.70;90.88
41688;BME280;27371;42.686;23.362;2023-03-04T04:00:56;163413.19;;;4.66;90.39
41688;BME280;27371;42.686;23.362;2023-03-04T04:03:21;163410.50;;;4.65;90.50
41688;BME280;27371;42.686;23.362;2023-03-04T04:05:47;163413.19;;;4.66;90.63
41688;BME280;27371;42.686;23.362;2023-03-04T04:08:16;163429.16;;;4.73;90.47
41688;BME280;27371;42.686;23.362;2023-03-04T04:10:42;163393.22;;;4.59;88.87
41688;BME280;27371;42.686;23.362;2023-03-04T04:13:08;163335.97;;;4.37;88.41
41688;BME280;27371;42.686;23.362;2023-03-04T04:15:33;163281.38;;;4.16;88.83
41688;BME280;27371;42.686;23.362;2023-03-04T04:17:59;163297.41;;;4.22;89.81
41688;BME280;27371;42.686;23.362;2023-03-04T04:20:25;163305.38;;;4.25;90.75
41688;BME280;27371;42.686;23.362;2023-03-04T04:22:50;163302.69;;;4.24;91.24
41688;BME280;27371;42.686;23.362;2023-03-04T04:25:16;163272.09;;;4.12;91.50
41688;BME280;27371;42.686;23.362;2023-03-04T04:27:41;163312.03;;;4.28;91.90
41688;BME280;27371;42.686;23.362;2023-03-04T04:30:07;163310.66;;;4.27;92.00
41688;BME280;27371;42.686;23.362;2023-03-04T04:32:33;163320.00;;;4.31;92.42
41688;BME280;27371;42.686;23.362;2023-03-04T04:34:59;163326.66;;;4.33;92.93
41688;BME280;27371;42.686;23.362;2023-03-04T04:37:24;163341.31;;;4.39;92.94
41688;BME280;27371;42.686;23.362;2023-03-04T04:39:49;163358.59;;;4.45;92.65
41688;BME280;27371;42.686;23.362;2023-03-04T04:42:16;163359.91;;;4.46;92.67
41688;BME280;27371;42.686;23.362;2023-03-04T04:44:41;163371.91;;;4.51;92.37
41688;BME280;27371;42.686;23.362;2023-03-04T04:47:08;163370.59;;;4.50;92.30
41688;BME280;27371;42.686;23.362;2023-03-04T04:49:34;163358.59;;;4.45;92.47
41688;BME280;27371;42.686;23.362;2023-03-04T04:52:00;163369.28;;;4.50;92.02
41688;BME280;27371;42.686;23.362;2023-03-04T04:54:25;163393.22;;;4.59;91.99
41688;BME280;27371;42.686;23.362;2023-03-04T04:56:51;163398.56;;;4.61;91.89
41688;BME280;27371;42.686;23.362;2023-03-04T04:59:16;163413.19;;;4.66;91.88
41688;BME280;27371;42.686;23.362;2023-03-04T05:01:41;163414.50;;;4.67;91.99
41688;BME280;27371;42.686;23.362;2023-03-04T05:04:07;163379.91;;;4.54;92.37
41688;BME280;27371;42.686;23.362;2023-03-04T05:06:33;163430.47;;;4.73;92.18
41688;BME280;27371;42.686;23.362;2023-03-04T05:08:58;163458.44;;;4.84;92.00
41688;BME280;27371;42.686;23.362;2023-03-04T05:11:24;163482.41;;;4.93;91.71
41688;BME280;27371;42.686;23.362;2023-03-04T05:13:49;163498.41;;;4.99;91.35
41688;BME280;27371;42.686;23.362;2023-03-04T05:16:15;163498.41;;;4.99;90.92
41688;BME280;27371;42.686;23.362;2023-03-04T05:18:42;163511.69;;;5.04;90.91
41688;BME280;27371;42.686;23.362;2023-03-04T05:21:08;163522.38;;;5.08;90.54
41688;BME280;27371;42.686;23.362;2023-03-04T05:23:37;163534.38;;;5.13;90.60
41688;BME280;27371;42.686;23.362;2023-03-04T05:26:04;163542.34;;;5.16;90.43
41688;BME280;27371;42.686;23.362;2023-03-04T05:28:30;163552.97;;;5.20;90.50
41688;BME280;27371;42.686;23.362;2023-03-04T05:30:56;163567.63;;;5.26;90.26
41688;BME280;27371;42.686;23.362;2023-03-04T05:33:21;163562.34;;;5.24;89.75
41688;BME280;27371;42.686;23.362;2023-03-04T05:35:48;163583.59;;;5.32;89.79
41688;BME280;27371;42.686;23.362;2023-03-04T05:38:16;163600.94;;;5.39;89.80
41688;BME280;27371;42.686;23.362;2023-03-04T05:40:42;163615.59;;;5.44;89.24
41688;BME280;27371;42.686;23.362;2023-03-04T05:43:08;163626.22;;;5.48;89.15
41688;BME280;27371;42.686;23.362;2023-03-04T05:45:33;163635.59;;;5.52;89.56
41688;BME280;27371;42.686;23.362;2023-03-04T05:47:59;163648.91;;;5.57;89.27
41688;BME280;27371;42.686;23.362;2023-03-04T05:50:25;163662.19;;;5.62;89.37
41688;BME280;27371;42.686;23.362;2023-03-04T05:52:51;163662.19;;;5.62;88.42
41688;BME280;27371;42.686;23.362;2023-03-04T05:55:17;163598.31;;;5.38;86.31
41688;BME280;27371;42.686;23.362;2023-03-04T05:57:42;163502.38;;;5.01;84.91
41688;BME280;27371;42.686;23.362;2023-03-04T06:00:09;163438.47;;;4.76;85.71
41688;BME280;27371;42.686;23.362;2023-03-04T06:02:54;163403.84;;;4.63;87.70
41688;BME280;27371;42.686;23.362;2023-03-04T06:05:20;163407.84;;;4.64;89.15
41688;BME280;27371;42.686;23.362;2023-03-04T06:07:46;163421.19;;;4.69;90.57
41688;BME280;27371;42.686;23.362;2023-03-04T06:10:14;163462.47;;;4.85;91.16
41688;BME280;27371;42.686;23.362;2023-03-04T06:12:40;163499.75;;;5.00;91.23
41688;BME280;27371;42.686;23.362;2023-03-04T06:15:06;163525.00;;;5.09;91.04
41688;BME280;27371;42.686;23.362;2023-03-04T06:17:34;163521.03;;;5.08;90.27
41688;BME280;27371;42.686;23.362;2023-03-04T06:19:59;163514.38;;;5.05;89.91
41688;BME280;27371;42.686;23.362;2023-03-04T06:22:25;163529.03;;;5.11;89.89
41688;BME280;27371;42.686;23.362;2023-03-04T06:24:51;163543.69;;;5.17;89.59
41688;BME280;27371;42.686;23.362;2023-03-04T06:27:16;163543.69;;;5.17;89.19
41688;BME280;27371;42.686;23.362;2023-03-04T06:29:42;163534.38;;;5.13;89.12
41688;BME280;27371;42.686;23.362;2023-03-04T06:32:08;163543.69;;;5.17;89.10
41688;BME280;27371;42.686;23.362;2023-03-04T06:34:33;163554.31;;;5.21;88.88
41688;BME280;27371;42.686;23.362;2023-03-04T06:36:59;163571.66;;;5.27;88.56
41688;BME280;27371;42.686;23.362;2023-03-04T06:39:24;163583.59;;;5.32;88.32
41688;BME280;27371;42.686;23.362;2023-03-04T06:41:50;163594.28;;;5.36;87.86
41688;BME280;27371;42.686;23.362;2023-03-04T06:44:15;163596.94;;;5.37;87.69
41688;BME280;27371;42.686;23.362;2023-03-04T06:46:41;163588.94;;;5.34;87.75
41688;BME280;27371;42.686;23.362;2023-03-04T06:49:07;163622.25;;;5.47;87.92
41688;BME280;27371;42.686;23.362;2023-03-04T06:51:32;163622.25;;;5.47;86.53
41688;BME280;27371;42.686;23.362;2023-03-04T06:53:58;163538.34;;;5.14;84.49
41688;BME280;27371;42.686;23.362;2023-03-04T06:56:23;163437.13;;;4.76;84.36
41688;BME280;27371;42.686;23.362;2023-03-04T06:58:49;163403.84;;;4.63;86.52
41688;BME280;27371;42.686;23.362;2023-03-04T07:01:18;163417.16;;;4.68;87.95
41688;BME280;27371;42.686;23.362;2023-03-04T07:03:44;163423.81;;;4.71;88.88
41688;BME280;27371;42.686;23.362;2023-03-04T07:06:11;163466.44;;;4.87;90.15
41688;BME280;27371;42.686;23.362;2023-03-04T07:08:38;163497.03;;;4.99;90.39
41688;BME280;27371;42.686;23.362;2023-03-04T07:11:04;163513.06;;;5.05;90.65
41688;BME280;27371;42.686;23.362;2023-03-04T07:13:29;163526.34;;;5.10;90.53
41688;BME280;27371;42.686;23.362;2023-03-04T07:15:55;163519.72;;;5.07;90.50
41688;BME280;27371;42.686;23.362;2023-03-04T07:18:20;163535.69;;;5.13;90.59
41688;BME280;27371;42.686;23.362;2023-03-04T07:20:46;163546.31;;;5.18;90.32
41688;BME280;27371;42.686;23.362;2023-03-04T07:23:11;163549.03;;;5.19;90.51
41688;BME280;27371;42.686;23.362;2023-03-04T07:25:37;163554.31;;;5.21;89.97
41688;BME280;27371;42.686;23.362;2023-03-04T07:28:02;163554.31;;;5.21;90.26
41688;BME280;27371;42.686;23.362;2023-03-04T07:30:28;163554.31;;;5.21;90.43
41688;BME280;27371;42.686;23.362;2023-03-04T07:32:56;163571.66;;;5.27;90.54
41688;BME280;27371;42.686;23.362;2023-03-04T07:35:22;163610.25;;;5.42;90.41
41688;BME280;27371;42.686;23.362;2023-03-04T07:37:47;163628.94;;;5.49;90.06
41688;BME280;27371;42.686;23.362;2023-03-04T07:40:13;163619.56;;;5.46;89.73
41688;BME280;27371;42.686;23.362;2023-03-04T07:42:38;163596.94;;;5.37;89.72
41688;BME280;27371;42.686;23.362;2023-03-04T07:45:05;163614.28;;;5.44;89.86
41688;BME280;27371;42.686;23.362;2023-03-04T07:47:32;163606.28;;;5.41;89.92
41688;BME280;27371;42.686;23.362;2023-03-04T07:49:57;163588.94;;;5.34;88.63
41688;BME280;27371;42.686;23.362;2023-03-04T07:52:23;163511.69;;;5.04;87.10
41688;BME280;27371;42.686;23.362;2023-03-04T07:54:48;163461.09;;;4.85;88.02
41688;BME280;27371;42.686;23.362;2023-03-04T07:57:14;163474.41;;;4.90;89.57
41688;BME280;27371;42.686;23.362;2023-03-04T07:59:39;163478.44;;;4.91;90.04
41688;BME280;27371;42.686;23.362;2023-03-04T08:02:05;163493.06;;;4.97;91.32
41688;BME280;27371;42.686;23.362;2023-03-04T08:04:31;163518.34;;;5.07;91.74
41688;BME280;27371;42.686;23.362;2023-03-04T08:06:56;163515.72;;;5.06;91.67
41688;BME280;27371;42.686;23.362;2023-03-04T08:09:22;163541.03;;;5.16;91.60
41688;BME280;27371;42.686;23.362;2023-03-04T08:11:48;163559.66;;;5.23;91.53
41688;BME280;27371;42.686;23.362;2023-03-04T08:14:13;163572.97;;;5.28;91.37
41688;BME280;27371;42.686;23.362;2023-03-04T08:16:39;163614.28;;;5.44;91.27
41688;BME280;27371;42.686;23.362;2023-03-04T08:19:05;163643.56;;;5.55;90.86
41688;BME280;27371;42.686;23.362;2023-03-04T08:21:32;163654.22;;;5.59;89.96
41688;BME280;27371;42.686;23.362;2023-03-04T08:23:59;163659.56;;;5.61;89.79
41688;BME280;27371;42.686;23.362;2023-03-04T08:26:31;163676.84;;;5.68;89.50
41688;BME280;27371;42.686;23.362;2023-03-04T08:29:00;163688.84;;;5.72;88.81
41688;BME280;27371;42.686;23.362;2023-03-04T08:31:26;163700.88;;;5.77;88.85
41688;BME280;27371;42.686;23.362;2023-03-04T08:33:51;163708.84;;;5.80;88.49
41688;BME280;27371;42.686;23.362;2023-03-04T08:36:17;163739.47;;;5.92;87.96
41688;BME280;27371;42.686;23.362;2023-03-04T08:38:43;163776.84;;;6.06;87.65
41688;BME280;27371;42.686;23.362;2023-03-04T08:41:09;163788.84;;;6.11;86.87
41688;BME280;27371;42.686;23.362;2023-03-04T08:43:34;163812.81;;;6.20;86.68
41688;BME280;27371;42.686;23.362;2023-03-04T08:46:00;163778.22;;;6.07;84.38
41688;BME280;27371;42.686;23.362;2023-03-04T08:48:26;163706.19;;;5.79;82.06
41688;BME280;27371;42.686;23.362;2023-03-04T08:50:52;163672.88;;;5.66;82.29
41688;BME280;27371;42.686;23.362;2023-03-04T08:53:18;163648.91;;;5.57;84.01
41688;BME280;27371;42.686;23.362;2023-03-04T08:55:44;163647.53;;;5.56;84.80
41688;BME280;27371;42.686;23.362;2023-03-04T08:58:10;163650.25;;;5.57;86.60
41688;BME280;27371;42.686;23.362;2023-03-04T09:00:40;163675.53;;;5.67;87.49
41688;BME280;27371;42.686;23.362;2023-03-04T09:03:08;163703.50;;;5.78;87.42
41688;BME280;27371;42.686;23.362;2023-03-04T09:05:34;163739.47;;;5.92;87.13
41688;BME280;27371;42.686;23.362;2023-03-04T09:08:00;163768.84;;;6.03;86.63
41688;BME280;27371;42.686;23.362;2023-03-04T09:10:26;163792.88;;;6.12;86.34
41688;BME280;27371;42.686;23.362;2023-03-04T09:12:51;163836.84;;;6.29;85.51
41688;BME280;27371;42.686;23.362;2023-03-04T09:15:18;163883.47;;;6.47;84.84
41688;BME280;27371;42.686;23.362;2023-03-04T09:17:43;163951.47;;;6.73;83.74
41688;BME280;27371;42.686;23.362;2023-03-04T09:20:10;164011.44;;;6.96;82.61
41688;BME280;27371;42.686;23.362;2023-03-04T09:22:37;164096.78;;;7.29;81.23
41688;BME280;27371;42.686;23.362;2023-03-04T09:25:03;164184.81;;;7.63;80.53
41688;BME280;27371;42.686;23.362;2023-03-04T09:27:29;164247.53;;;7.87;78.04
41688;BME280;27371;42.686;23.362;2023-03-04T09:29:55;164303.56;;;8.08;77.49
41688;BME280;27371;42.686;23.362;2023-03-04T09:32:20;164342.25;;;8.23;75.75
41688;BME280;27371;42.686;23.362;2023-03-04T09:34:46;164368.94;;;8.33;74.23
41688;BME280;27371;42.686;23.362;2023-03-04T09:37:11;164405.03;;;8.47;73.33
41688;BME280;27371;42.686;23.362;2023-03-04T09:39:37;164451.72;;;8.65;72.82
41688;BME280;27371;42.686;23.362;2023-03-04T09:42:03;164487.75;;;8.79;71.49
41688;BME280;27371;42.686;23.362;2023-03-04T09:44:34;164451.72;;;8.65;69.57
41688;BME280;27371;42.686;23.362;2023-03-04T09:47:10;164303.56;;;8.08;69.94
41688;BME280;27371;42.686;23.362;2023-03-04T09:49:37;164199.47;;;7.68;71.97
41688;BME280;27371;42.686;23.362;2023-03-04T10:00:14;164251.50;;;7.88;75.79
41688;BME280;27371;42.686;23.362;2023-03-04T10:05:27;164362.28;;;8.31;73.68
41688;BME280;27371;42.686;23.362;2023-03-04T10:07:58;164386.31;;;8.40;72.45
41688;BME280;27371;42.686;23.362;2023-03-04T10:10:37;164407.69;;;8.48;71.69
41688;BME280;27371;42.686;23.362;2023-03-04T10:13:05;164414.34;;;8.51;71.67
41688;BME280;27371;42.686;23.362;2023-03-04T10:15:39;164447.75;;;8.63;71.06
41688;BME280;27371;42.686;23.362;2023-03-04T10:18:41;164417.00;;;8.52;70.27
41688;BME280;27371;42.686;23.362;2023-03-04T10:23:32;164399.69;;;8.45;70.79
41688;BME280;27371;42.686;23.362;2023-03-04T10:26:01;164469.09;;;8.72;70.26
41688;BME280;27371;42.686;23.362;2023-03-04T10:28:35;164494.44;;;8.81;69.49
41688;BME280;27371;42.686;23.362;2023-03-04T10:31:20;164482.47;;;8.77;68.57
41688;BME280;27371;42.686;23.362;2023-03-04T10:33:51;164470.44;;;8.72;68.86
41688;BME280;27371;42.686;23.362;2023-03-04T10:36:32;164530.47;;;8.95;68.42
41688;BME280;27371;42.686;23.362;2023-03-04T10:41:30;164494.44;;;8.81;67.75
41688;BME280;27371;42.686;23.362;2023-03-04T10:46:45;164358.25;;;8.29;67.79
41688;BME280;27371;42.686;23.362;2023-03-04T10:49:13;164287.50;;;8.02;69.08
41688;BME280;27371;42.686;23.362;2023-03-04T10:51:46;164242.16;;;7.85;71.46
41688;BME280;27371;42.686;23.362;2023-03-04T10:57:13;164290.22;;;8.03;72.10
41688;BME280;27371;42.686;23.362;2023-03-04T11:02:25;164287.50;;;8.02;72.27
41688;BME280;27371;42.686;23.362;2023-03-04T11:04:54;164276.88;;;7.98;71.90
41688;BME280;27371;42.686;23.362;2023-03-04T11:07:23;164330.22;;;8.18;71.41
41688;BME280;27371;42.686;23.362;2023-03-04T11:09:49;164371.59;;;8.34;70.66
41688;BME280;27371;42.686;23.362;2023-03-04T11:12:18;164409.00;;;8.48;69.96
41688;BME280;27371;42.686;23.362;2023-03-04T11:14:46;164462.41;;;8.69;69.38
41688;BME280;27371;42.686;23.362;2023-03-04T11:17:17;164515.78;;;8.89;68.43
41688;BME280;27371;42.686;23.362;2023-03-04T11:19:47;164553.16;;;9.04;68.01
41688;BME280;27371;42.686;23.362;2023-03-04T11:22:17;164574.53;;;9.12;67.63
41688;BME280;27371;42.686;23.362;2023-03-04T11:24:50;164623.94;;;9.31;67.58
41688;BME280;27371;42.686;23.362;2023-03-04T11:27:24;164645.31;;;9.39;66.47
41688;BME280;27371;42.686;23.362;2023-03-04T11:30:12;164634.66;;;9.35;65.92
41688;BME280;27371;42.686;23.362;2023-03-04T11:32:44;164643.97;;;9.39;65.81
41688;BME280;27371;42.686;23.362;2023-03-04T11:35:21;164686.72;;;9.55;65.19
41688;BME280;27371;42.686;23.362;2023-03-04T11:38:04;164697.38;;;9.59;64.89
41688;BME280;27371;42.686;23.362;2023-03-04T11:40:40;164720.13;;;9.68;64.80
41688;BME280;27371;42.686;23.362;2023-03-04T11:43:15;164653.31;;;9.42;64.96
41688;BME280;27371;42.686;23.362;2023-03-04T11:46:00;164579.88;;;9.14;66.60
41688;BME280;27371;42.686;23.362;2023-03-04T11:48:36;164575.91;;;9.12;68.08
41688;BME280;27371;42.686;23.362;2023-03-04T11:51:11;164554.53;;;9.04;68.07
41688;BME280;27371;42.686;23.362;2023-03-04T11:56:38;164606.59;;;9.24;67.18
41688;BME280;27371;42.686;23.362;2023-03-04T11:59:29;164633.28;;;9.34;67.07
41688;BME280;27371;42.686;23.362;2023-03-04T12:10:37;164662.69;;;9.46;65.84
41688;BME280;27371;42.686;23.362;2023-03-04T12:15:40;164692.06;;;9.57;65.70
41688;BME280;27371;42.686;23.362;2023-03-04T12:18:30;164705.44;;;9.62;65.43
41688;BME280;27371;42.686;23.362;2023-03-04T12:27:21;164618.59;;;9.29;65.67
41688;BME280;27371;42.686;23.362;2023-03-04T12:35:11;164642.66;;;9.38;66.00
41688;BME280;27371;42.686;23.362;2023-03-04T12:40:25;164646.63;;;9.40;64.39
41688;BME280;27371;42.686;23.362;2023-03-04T12:54:03;164391.69;;;8.42;70.40
41688;BME280;27371;42.686;23.362;2023-03-04T12:59:17;164533.19;;;8.96;69.67
41688;BME280;27371;42.686;23.362;2023-03-04T13:02:01;164546.50;;;9.01;67.65
41688;BME280;27371;42.686;23.362;2023-03-04T13:09:54;164593.25;;;9.19;66.34
41688;BME280;27371;42.686;23.362;2023-03-04T13:12:23;164606.59;;;9.24;66.07
41688;BME280;27371;42.686;23.362;2023-03-04T13:20:21;164627.97;;;9.32;66.11
41688;BME280;27371;42.686;23.362;2023-03-04T13:22:56;164633.28;;;9.34;66.29
41688;BME280;27371;42.686;23.362;2023-03-04T13:28:34;164591.91;;;9.19;66.54
41688;BME280;27371;42.686;23.362;2023-03-04T13:31:11;164591.91;;;9.19;66.46
41688;BME280;27371;42.686;23.362;2023-03-04T13:36:06;164606.59;;;9.24;66.37
41688;BME280;27371;42.686;23.362;2023-03-04T13:41:46;164561.19;;;9.07;68.29
41688;BME280;27371;42.686;23.362;2023-03-04T13:44:34;164435.72;;;8.59;66.31
41688;BME280;27371;42.686;23.362;2023-03-04T13:47:29;164336.91;;;8.21;68.45
41688;BME280;27371;42.686;23.362;2023-03-04T13:50:38;164268.88;;;7.95;70.91
41688;BME280;27371;42.686;23.362;2023-03-04T13:53:28;164266.16;;;7.94;72.44
41688;BME280;27371;42.686;23.362;2023-03-04T13:58:42;164327.56;;;8.17;71.91
41688;BME280;27371;42.686;23.362;2023-03-04T14:01:26;164385.00;;;8.39;71.62
41688;BME280;27371;42.686;23.362;2023-03-04T14:03:53;164402.34;;;8.46;70.04
41688;BME280;27371;42.686;23.362;2023-03-04T14:06:28;164399.69;;;8.45;70.21
41688;BME280;27371;42.686;23.362;2023-03-04T14:08:55;164421.03;;;8.53;70.39
41688;BME280;27371;42.686;23.362;2023-03-04T14:11:34;164411.72;;;8.50;69.50
41688;BME280;27371;42.686;23.362;2023-03-04T14:14:05;164441.06;;;8.61;70.97
41688;BME280;27371;42.686;23.362;2023-03-04T14:16:38;164482.47;;;8.77;70.12
41688;BME280;27371;42.686;23.362;2023-03-04T14:19:06;164487.75;;;8.79;69.29
41688;BME280;27371;42.686;23.362;2023-03-04T14:21:32;164486.44;;;8.78;68.68
41688;BME280;27371;42.686;23.362;2023-03-04T14:24:02;164467.72;;;8.71;68.79
41688;BME280;27371;42.686;23.362;2023-03-04T14:26:28;164467.72;;;8.71;68.97
41688;BME280;27371;42.686;23.362;2023-03-04T14:28:55;164486.44;;;8.78;68.81